Airfield :
LOGIN :

Register | Disclaimer

   EN    FR    IT 

 










Legend :    VFR   Marginal VFR   IFR   Intensive IFR   Very Intensive IFR
Visi :
Ceiling :
>= 8 km
>= 3000ft
5 to 8 km
1000 to 3000 ft
1500m to 5 km
500 to 1000 ft
800 to 1500m
200 to 500 ft
< 800m
< 200 ft
Symbols :   Thunderstorms  Fog  Heavy snow  Heavy precipitations  Wind > 20 kt
SIGMETs :     Misc.  Thunderstorms  Icing  Turbulence  Mountain Waves  Volcanic Ashes






- Airport Elevation : 87 ft
- IATA code : FSC


LFKF - Figari

CURRENT METAR :
  • 021930Z AUTO 20010KT 170V230 CAVOK 25/16 Q1010 TEMPO BKN010

EXPIRED METARs :
  • 021900Z AUTO 20012KT 170V230 CAVOK 26/18 Q1010 TEMPO BKN010
  • 021830Z AUTO 22013KT 9999 FEW001 27/18 Q1010 TEMPO BKN010
  • 021800Z AUTO 20011KT CAVOK 29/19 Q1010 NOSIG
  • 021730Z AUTO 23014KT CAVOK 30/20 Q1010 NOSIG
  • 021700Z AUTO 24017KT CAVOK 30/20 Q1010 NOSIG

TAF TAF LFKF
Valid from the 02 at 15:00 until the 03 at 15:00 UTC


021400Z 0215/0315 22010KT CAVOK
PROB30
TEMPO 0220/0303 BKN010
TEMPO 0307/0315 24017G27KT



MET'MAP, your aeronautical weather chart ! - Copyright ORBIFLY December 2007 - Disclaimer

ORBIFLY MET'MAP TEAM :

Programming & Development : Alexandra Zaïnal
Concept & original design : Baudouin d'Aumeries
Assistance for programming : Marc-Olivier Méhu
Technical & hardware support : Manuel Goepfert

Contact : metmap@orbifly.com




SOURCES & CREDITS :

   NOAA